Flight Track Log - Related Links

Times and Time Zones

All times are in EDT time to prevent confusion due to time zone crossing. See the RPA3228 flight status page for this flight to view local times or setup timezone preferences in your user account.

Time Position Orientation Groundspeed Altitude Reporting Facility
EDT Latitude Longitude Course Direction KTS MPH feet Rate Location/Type
Fri 07:45:22 AM 36.1333 -86.6833 64° Northeast 152 175 1,300  Level Nashville TRACON
Fri 07:46:46 AM 36.1500 -86.7833 282° West 250 288 4,400 2,800 Climbing Nashville TRACON
Fri 07:47:52 AM 36.1833 -86.8667 296° West 292 336 8,300 3,145 Climbing Nashville TRACON
Fri 07:48:00 AM 36.1871 -86.1572 80° East  Level FlightAware Approximate
Fri 07:48:50 AM 36.2308 -86.8142 42° Northeast 248 285 10,900  Level Memphis Center
Fri 07:49:00 AM 36.2136 -86.0328 64° Northeast  Level FlightAware Approximate
Fri 07:49:50 AM 36.2253 -86.6933 93° East 209 241 13,300  Level Memphis Center
Fri 07:50:00 AM 36.2601 -85.9165 64° Northeast  Level FlightAware Approximate
Fri 07:50:50 AM 36.2194 -86.5675 93° East 292 336 15,600  Level Memphis Center
Fri 07:51:50 AM 36.2153 -86.4367 92° East 349 402 18,000 2,350 Climbing Memphis Center
Fri 07:52:50 AM 36.2089 -86.3031 93° East 377 434 20,300 2,200 Climbing Memphis Center
Fri 07:53:50 AM 36.2022 -86.1619 93° East 400 460 22,400 1,912 Climbing Memphis Center
Fri 07:55:52 AM 36.2786 -85.8983 70° East 424 488 26,100 1,654 Climbing Indianapolis Center
Fri 07:56:55 AM 36.3317 -85.7769 61° Northeast 424 488 27,500 1,392 Climbing Indianapolis Center
Fri 07:57:57 AM 36.3931 -85.6472 60° Northeast 432 497 29,000 1,512 Climbing Indianapolis Center
Fri 07:58:58 AM 36.4561 -85.5167 59° Northeast 438 504 30,600 992 Climbing Indianapolis Center
Fri 07:59:58 AM 36.5161 -85.3867 60° Northeast 434 499 31,000 194 Climbing Indianapolis Center
Fri 08:01:02 AM 36.5728 -85.2197 67° East 437 503 31,000  Level Indianapolis Center
Fri 08:02:01 AM 36.6178 -85.0800 68° East 433 498 31,000  Level Indianapolis Center
Fri 08:03:05 AM 36.6617 -84.9381 69° East 437 503 31,000  Level Indianapolis Center
Fri 08:04:05 AM 36.7067 -84.7958 68° East 439 505 31,000  Level Indianapolis Center
Fri 08:05:06 AM 36.7503 -84.6525 69° East 441 507 31,000  Level Indianapolis Center
Fri 08:06:10 AM 36.8000 -84.4939 69° East 444 511 31,000  Level Indianapolis Center
Fri 08:07:11 AM 36.8453 -84.3489 69° East 448 516 31,000  Level Indianapolis Center
Fri 08:08:12 AM 36.8894 -84.2022 69° East 451 519 31,000  Level Indianapolis Center
Fri 08:09:12 AM 36.9344 -84.0564 69° East 450 518 31,000  Level Indianapolis Center
Fri 08:10:16 AM 36.9783 -83.9081 70° East 457 526 31,000  Level Indianapolis Center
Fri 08:11:16 AM 37.0250 -83.7608 68° East 458 527 31,000  Level Indianapolis Center
Fri 08:12:17 AM 37.0689 -83.6103 70° East 459 528 31,000  Level Indianapolis Center
Fri 08:13:21 AM 37.1142 -83.4606 69° East 462 532 31,000  Level Indianapolis Center
Fri 08:14:21 AM 37.1594 -83.3089 69° East 466 536 31,000  Level Indianapolis Center
Fri 08:15:22 AM 37.2119 -83.1306 70° East 464 534 31,000  Level Indianapolis Center
Fri 08:16:25 AM 37.2575 -82.9758 70° East 466 536 31,000  Level Indianapolis Center
Fri 08:17:26 AM 37.3025 -82.8194 70° East 471 542 31,000  Level Indianapolis Center
Fri 08:18:26 AM 37.3500 -82.6617 69° East 478 550 31,000  Level Indianapolis Center
Fri 08:19:27 AM 37.3953 -82.5033 70° East 479 551 31,000  Level Indianapolis Center
Fri 08:20:31 AM 37.4406 -82.3425 70° East 484 557 31,000  Level Indianapolis Center
Fri 08:21:31 AM 37.4864 -82.1844 70° East 481 554 31,000  Level Indianapolis Center
Fri 08:22:35 AM 37.5308 -82.0247 71° East 482 555 31,000  Level Indianapolis Center
Fri 08:23:35 AM 37.5761 -81.8639 70° East 485 558 31,000  Level Indianapolis Center
Fri 08:24:37 AM 37.6197 -81.7042 71° East 482 555 31,000  Level Indianapolis Center
Fri 08:25:37 AM 37.6728 -81.5183 70° East 482 555 31,000  Level Indianapolis Center
Fri 08:26:38 AM 37.7125 -81.3703 71° East 480 552 31,000  Level Indianapolis Center
Fri 08:27:41 AM 37.7556 -81.2122 71° East 488 562 31,000  Level Indianapolis Center
Fri 08:28:41 AM 37.8150 -81.0233 68° East 495 570 31,000  Level Indianapolis Center
Fri 08:29:46 AM 37.8681 -80.8772 65° Northeast 502 578 31,000  Level Indianapolis Center
Fri 08:30:46 AM 37.9247 -80.7144 66° East 507 583 31,000  Level Indianapolis Center
Fri 08:31:23 AM 37.9642 -80.6069 65° Northeast 503 579 31,000  Level Washington Center
Fri 08:32:24 AM 38.0300 -80.4267 65° Northeast 503 579 31,000  Level Washington Center
Fri 08:33:25 AM 38.0886 -80.2642 65° Northeast 503 579 31,000  Level Washington Center
Fri 08:34:23 AM 38.1447 -80.1067 66° East 509 586 31,000 -950 Level Washington Center
Fri 08:35:25 AM 38.2006 -79.9464 66° East 499 574 29,100 -984 Descending Washington Center
Fri 08:36:25 AM 38.2564 -79.7856 66° East 493 567 29,000 -915 Descending Washington Center
Fri 08:37:23 AM 38.3072 -79.6456 65° Northeast 493 567 27,300 -1,008 Descending Washington Center
Fri 08:38:24 AM 38.3581 -79.4947 67° East 482 555 27,000 -148 Descending Washington Center
Fri 08:39:25 AM 38.4086 -79.3436 67° East 470 541 27,000  Level Washington Center
Fri 08:40:23 AM 38.4469 -79.1867 73° East 465 535 27,000  Level Washington Center
Fri 08:41:25 AM 38.4747 -79.0181 78° East 451 519 27,000 -300 Level Washington Center
Fri 08:42:23 AM 38.4978 -78.8628 79° East 446 513 26,400 -1,513 Descending Washington Center
Fri 08:43:24 AM 38.5228 -78.7125 78° East 446 513 24,000 -2,016 Descending Washington Center
Fri 08:44:25 AM 38.5431 -78.5647 80° East 446 513 22,300 -1,361 Descending Washington Center
Fri 08:45:23 AM 38.5675 -78.4197 78° East 426 490 21,300 -1,373 Descending Washington Center
Fri 08:46:23 AM 38.5914 -78.2797 78° East 414 476 19,600 -1,736 Descending Washington Center
Fri 08:47:24 AM 38.6278 -78.1481 70° East 401 461 17,800 -1,721 Descending Washington Center
Fri 08:48:25 AM 38.6700 -78.0219 67° East 388 447 16,100 -1,636 Descending Washington Center
Fri 08:49:25 AM 38.7011 -77.9219 68° East 357 411 14,500 -1,627 Descending Washington Center
Fri 08:50:23 AM 38.7383 -77.8219 64° Northeast 328 377 12,900 -1,412 Descending Washington Center
Fri 08:51:24 AM 38.7942 -77.7411 48° Northeast 305 351 11,700 -1,180 Descending Washington Center
Fri 08:52:25 AM 38.8394 -77.6492 58° Northeast 295 339 10,500 -1,289 Descending Washington Center
Fri 08:53:39 AM 38.8833 -77.5167 67° East 292 336 8,800 -1,299 Descending Potomac TRACON
Fri 08:54:39 AM 38.9000 -77.4333 76° East 280 322 7,600 -1,150 Descending Potomac TRACON
Fri 08:55:39 AM 38.8667 -77.3500 117° Southeast 245 282 6,500 -793 Descending Potomac TRACON
Fri 08:56:40 AM 38.8333 -77.2833 123° Southeast 191 220 6,000 -261 Descending Potomac TRACON
Fri 08:57:34 AM 38.8167 -77.2333 113° Southeast 191 220 6,000  Level Potomac TRACON
Fri 08:58:40 AM 38.7833 -77.1667 123° Southeast 194 223 6,000 -50 Level Potomac TRACON
Fri 08:59:34 AM 38.7500 -77.1167 131° Southeast 201 231 5,900 -833 Descending Potomac TRACON
Fri 09:00:28 AM 38.7000 -77.1167 180° South 207 238 4,500 -1,000 Descending Potomac TRACON
Fri 09:01:28 AM 38.6500 -77.1000 165° South 209 241 4,000 -250 Descending Potomac TRACON
Fri 09:02:28 AM 38.5833 -77.1000 180° South 211 243 4,000 -368 Level Potomac TRACON
Fri 09:03:22 AM 38.5500 -77.0833 159° South 206 237 3,300 -789 Descending Potomac TRACON
Fri 09:04:22 AM 38.5667 -77.0333 67° East 157 181 2,500 -421 Descending Potomac TRACON
Fri 09:05:16 AM 38.6000 -77.0167 21° North 156 180 2,500  Level Potomac TRACON
Fri 09:06:16 AM 38.6500 -77.0167 360° North 161 185 2,500  Level Potomac TRACON
Fri 09:07:16 AM 38.6833 -77.0167 360° North 140 161 2,500 -100 Level Potomac TRACON
Fri 09:08:16 AM 38.7167 -77.0167 360° North 140 161 2,300 -200 Descending Potomac TRACON

Login

Don't have an account? Register now (free) for customized features, flight alerts, and more!